aviador You're here:

KAZO Decoded Metar

KALAMAZOO in MI, USA
Report Time2017-11-24 08:53:00
UTC Time2017-11-24 09:11:11
Flight Rules vfr VFR
Wind190° at 07 kt
W.Decomp.*RWY 17: 6.4 kt HW 2.7 kt RCW
RWY 23: 5.6 kt HW 4.2 kt LCW
RWY 27: 1.6 kt HW 6.8 kt LCW
W.Rank190° ranks 3
Current wind is below 190° avg. (8.8)
Visibility9999 m
Phenomena:N/A
Clouds:N/A
Expected CloudBase > 2,000 ft AGL from Temp-Dew spread
CeilingNone
Temp00°C (ISA -13)
Dew Point-5°C (69% RH)
AAT-5.1°C
QNH1011 hPa
Density Alt-591 ft
Elevation892 ft
Report Wrong Elevation
Raw Report
METAR KAZO 240853Z AUTO 19007KT 10SM CLR 00/M05 A2985 RMK AO2 SLP116
T00001050 58017=

Extra information for KAZO:More info

Metar Taf Metar & Taf Last 4 Metars F.Rules Stats Wind Profile Meteogram Temp Stats Airport Information Weather charts Add Link Nearby VenuesMetar ALERT Operation Metar Decoded Social comments

AIRNAV info for KAZO